Time;durP1;ratioP1;P1;durP2;ratioP2;P2;SDS_P1;SDS_P2;PMS_P1;PMS_P2;Temp;Humidity;BMP_temperature;BMP_pressure;BME280_temperature;BME280_humidity;BME280_pressure;Samples;Min_cycle;Max_cycle;Signal;HPM_P1;HPM_P2
2021/08/18 00:01:17;;;;;;;12.27;7.47;;;;;;;24.75;58.18;100534.94;4966710;28;20051;-72
2021/08/18 00:03:45;;;;;;;12.35;7.30;;;;;;;24.78;58.71;100528.53;4967629;28;20046;-72
2021/08/18 00:06:13;;;;;;;11.68;5.95;;;;;;;24.62;58.74;100531.94;4967640;28;20054;-71
2021/08/18 00:08:41;;;;;;;13.25;6.50;;;;;;;24.60;58.15;100527.59;4965285;28;20394;-70
2021/08/18 00:11:09;;;;;;;12.07;7.60;;;;;;;24.64;58.28;100537.28;4966489;28;20041;-71
2021/08/18 00:13:36;;;;;;;12.00;6.07;;;;;;;24.68;58.88;100532.63;4962224;28;20047;-72
2021/08/18 00:16:04;;;;;;;13.90;6.57;;;;;;;24.63;58.93;100531.00;4966241;28;20047;-71
2021/08/18 00:18:33;;;;;;;13.73;7.25;;;;;;;24.69;58.96;100524.44;4967719;28;20047;-71
2021/08/18 00:21:02;;;;;;;11.63;7.55;;;;;;;24.69;59.05;100520.88;4965651;28;20837;-73
2021/08/18 00:23:29;;;;;;;20.83;9.35;;;;;;;24.71;59.98;100518.97;4966402;28;20046;-73
2021/08/18 00:25:57;;;;;;;13.95;8.65;;;;;;;24.79;61.52;100514.09;4965886;28;20126;-73
2021/08/18 00:28:24;;;;;;;16.52;7.97;;;;;;;24.81;62.28;100515.75;4966507;28;20043;-71
2021/08/18 00:30:51;;;;;;;16.52;7.78;;;;;;;24.80;62.25;100511.34;4966732;28;20053;-72
2021/08/18 00:33:19;;;;;;;11.98;7.38;;;;;;;24.81;62.21;100517.63;4966191;28;20223;-72
2021/08/18 00:35:48;;;;;;;14.13;8.00;;;;;;;24.81;62.59;100509.50;4968341;28;20054;-72
2021/08/18 00:38:15;;;;;;;11.88;8.00;;;;;;;24.78;62.59;100504.25;4965069;28;20078;-72
2021/08/18 00:40:42;;;;;;;15.02;8.38;;;;;;;24.78;63.07;100501.53;4965770;28;20520;-71
2021/08/18 00:43:10;;;;;;;15.00;8.82;;;;;;;24.76;63.55;100504.31;4959388;28;20073;-72
2021/08/18 00:45:37;;;;;;;14.25;8.90;;;;;;;24.75;63.98;100501.66;4967421;28;20502;-72
2021/08/18 00:48:06;;;;;;;15.05;8.85;;;;;;;24.75;64.09;100504.38;4969087;28;20047;-72
2021/08/18 00:50:33;;;;;;;17.13;8.30;;;;;;;24.67;64.57;100502.06;4970014;28;20039;-72
2021/08/18 00:53:02;;;;;;;18.60;9.30;;;;;;;24.67;65.03;100509.28;4970293;28;20077;-71
2021/08/18 00:55:29;;;;;;;16.20;9.30;;;;;;;24.68;65.18;100501.09;4970678;28;20046;-72
2021/08/18 00:57:58;;;;;;;18.90;9.77;;;;;;;24.69;65.40;100502.84;4970999;28;20043;-72
2021/08/18 01:00:27;;;;;;;14.57;9.75;;;;;;;24.70;65.78;100501.03;4968863;28;20050;-72
2021/08/18 01:02:57;;;;;;;16.70;10.05;;;;;;;24.71;66.44;100500.06;4970149;28;20043;-71
2021/08/18 01:05:27;;;;;;;20.40;10.85;;;;;;;24.71;66.93;100494.69;4968939;28;20042;-72
2021/08/18 01:07:57;;;;;;;19.05;9.18;;;;;;;24.68;67.33;100497.53;4970172;28;20391;-72
2021/08/18 01:10:30;;;;;;;15.13;10.02;;;;;;;24.57;67.79;100504.28;4969488;28;20513;-71
2021/08/18 01:12:58;;;;;;;14.70;8.35;;;;;;;24.39;68.27;100499.75;4970309;28;20043;-71
2021/08/18 01:15:28;;;;;;;17.75;9.80;;;;;;;24.34;68.42;100500.91;4970139;28;20050;-71
2021/08/18 01:17:58;;;;;;;13.93;8.23;;;;;;;24.38;68.89;100498.00;4970961;28;20039;-73
2021/08/18 01:20:27;;;;;;;17.50;8.80;;;;;;;24.41;68.66;100500.56;4968936;28;20054;-73
2021/08/18 01:22:55;;;;;;;19.50;9.75;;;;;;;24.35;69.05;100502.66;4970252;28;20034;-72
2021/08/18 01:25:23;;;;;;;16.17;9.63;;;;;;;24.33;69.03;100502.72;4969579;28;20043;-72
2021/08/18 01:27:55;;;;;;;20.10;10.13;;;;;;;24.34;68.62;100501.78;4969849;28;20522;-72
2021/08/18 01:30:25;;;;;;;19.98;10.70;;;;;;;24.33;68.78;100505.44;4969118;28;20059;-72
2021/08/18 01:32:57;;;;;;;14.32;9.02;;;;;;;24.32;68.50;100500.09;4970081;28;20035;-72
2021/08/18 01:35:26;;;;;;;15.48;10.55;;;;;;;24.27;68.16;100503.00;4969768;28;20043;-72
2021/08/18 01:37:54;;;;;;;16.58;10.25;;;;;;;24.16;68.18;100495.34;4970134;28;20046;-72
2021/08/18 01:40:22;;;;;;;17.05;9.93;;;;;;;24.17;68.19;100504.31;4968069;28;20062;-72
2021/08/18 01:42:50;;;;;;;17.77;10.88;;;;;;;24.22;68.07;100500.50;4969630;28;20047;-72
2021/08/18 01:45:22;;;;;;;15.77;9.00;;;;;;;24.26;67.90;100503.94;4968726;28;20051;-72
2021/08/18 01:47:51;;;;;;;22.98;10.93;;;;;;;24.27;68.06;100502.13;4968708;28;20042;-72
2021/08/18 01:50:20;;;;;;;18.27;9.27;;;;;;;24.29;68.63;100500.22;4967270;28;20059;-72
2021/08/18 01:52:50;;;;;;;18.20;10.02;;;;;;;24.32;68.74;100497.41;4969076;28;20545;-72
2021/08/18 01:55:18;;;;;;;16.73;9.27;;;;;;;24.31;68.80;100501.03;4967950;28;20096;-72
2021/08/18 01:57:46;;;;;;;19.00;10.73;;;;;;;24.34;69.13;100501.78;4969685;28;20402;-71
2021/08/18 02:00:16;;;;;;;21.13;10.85;;;;;;;24.38;69.58;100495.28;4968125;28;20512;-71
2021/08/18 02:02:44;;;;;;;14.18;9.52;;;;;;;24.33;70.14;100493.75;4969224;28;20070;-71
2021/08/18 02:05:13;;;;;;;15.77;9.27;;;;;;;24.28;69.89;100496.66;4967858;28;20496;-70
2021/08/18 02:07:42;;;;;;;16.80;9.52;;;;;;;24.26;69.86;100492.28;4969634;28;20054;-70
2021/08/18 02:10:12;;;;;;;18.25;9.40;;;;;;;24.24;70.06;100500.44;4968084;28;20120;-74
2021/08/18 02:12:41;;;;;;;19.48;10.50;;;;;;;24.26;69.77;100493.16;4969878;28;20089;-73
2021/08/18 02:15:11;;;;;;;14.18;8.95;;;;;;;24.24;70.08;100489.63;4967634;28;20046;-73
2021/08/18 02:17:39;;;;;;;15.88;9.98;;;;;;;24.22;70.00;100489.69;4969193;28;20403;-74
2021/08/18 02:20:11;;;;;;;17.73;11.00;;;;;;;24.22;70.15;100495.09;4967620;28;20057;-73
2021/08/18 02:22:40;;;;;;;20.00;10.02;;;;;;;24.19;70.41;100502.47;4963506;28;20047;-73
2021/08/18 02:25:08;;;;;;;17.95;10.63;;;;;;;24.19;70.75;100499.78;4968046;28;20069;-73
2021/08/18 02:27:36;;;;;;;17.02;8.85;;;;;;;24.17;71.09;100498.91;4958858;28;20043;-73
2021/08/18 02:30:05;;;;;;;20.42;11.30;;;;;;;24.21;71.01;100503.28;4966232;28;20486;-72
2021/08/18 02:32:32;;;;;;;20.30;10.40;;;;;;;24.23;71.36;100509.47;4967958;28;20062;-73
2021/08/18 02:35:00;;;;;;;19.85;10.90;;;;;;;24.24;71.45;100503.13;4968381;28;20043;-72
2021/08/18 02:37:28;;;;;;;14.98;10.35;;;;;;;24.19;71.38;100507.88;4968609;28;20050;-72
2021/08/18 02:39:57;;;;;;;15.57;9.15;;;;;;;24.18;70.86;100496.16;4966354;28;20046;-72
2021/08/18 02:42:24;;;;;;;18.40;10.40;;;;;;;24.12;70.78;100501.81;4967191;28;20047;-72
2021/08/18 02:44:52;;;;;;;19.35;10.25;;;;;;;24.05;71.11;100496.78;4968614;28;20039;-72
2021/08/18 02:47:19;;;;;;;25.00;9.77;;;;;;;24.06;71.25;100498.53;4967235;28;23536;-72
2021/08/18 02:49:47;;;;;;;15.88;10.15;;;;;;;24.08;71.36;100496.66;4963538;28;20046;-74
2021/08/18 02:52:14;;;;;;;16.70;10.05;;;;;;;24.09;71.44;100493.84;4968675;28;20053;-71
2021/08/18 02:54:42;;;;;;;18.02;9.88;;;;;;;24.05;71.96;100491.38;4967397;28;20042;-70
2021/08/18 02:57:11;;;;;;;14.82;9.30;;;;;;;24.01;71.97;100492.47;4967615;28;20046;-72
2021/08/18 02:59:39;;;;;;;18.95;10.43;;;;;;;23.96;72.85;100489.09;4967223;28;20054;-72
2021/08/18 03:02:06;;;;;;;23.00;11.48;;;;;;;24.01;72.74;100490.66;4966521;28;20687;-72
2021/08/18 03:04:33;;;;;;;19.13;10.38;;;;;;;24.04;72.88;100492.31;4968693;28;20043;-72
2021/08/18 03:07:01;;;;;;;20.00;11.55;;;;;;;24.10;73.19;100489.34;4967607;28;20038;-71
2021/08/18 03:09:28;;;;;;;19.88;11.25;;;;;;;24.16;73.31;100489.06;4966891;28;20058;-71
2021/08/18 03:11:56;;;;;;;20.13;10.35;;;;;;;24.15;73.42;100484.63;4967933;28;20035;-72
2021/08/18 03:14:25;;;;;;;17.63;11.77;;;;;;;24.16;73.42;100483.66;4966410;28;20419;-71
2021/08/18 03:16:53;;;;;;;16.70;10.57;;;;;;;24.15;73.51;100480.13;4968887;28;20039;-71
2021/08/18 03:19:20;;;;;;;20.00;11.30;;;;;;;24.16;73.45;100483.66;4965963;28;20042;-71
2021/08/18 03:21:48;;;;;;;16.38;10.23;;;;;;;24.18;73.86;100479.97;4968215;28;20047;-71
2021/08/18 03:24:15;;;;;;;18.80;9.73;;;;;;;24.17;74.18;100483.59;4967333;28;20047;-72
2021/08/18 03:26:43;;;;;;;18.23;11.10;;;;;;;24.13;74.48;100473.03;4968944;28;20502;-70
2021/08/18 03:29:10;;;;;;;18.52;10.93;;;;;;;24.14;74.29;100480.19;4967674;28;20414;-72
2021/08/18 03:31:39;;;;;;;20.23;10.43;;;;;;;24.15;74.01;100477.44;4968481;28;20529;-72
2021/08/18 03:34:07;;;;;;;22.15;10.05;;;;;;;24.08;73.87;100484.03;4962746;28;20050;-71
2021/08/18 03:36:35;;;;;;;18.40;10.15;;;;;;;24.09;74.09;100483.06;4962269;28;20039;-72
2021/08/18 03:39:03;;;;;;;20.00;10.85;;;;;;;24.13;73.92;100478.44;4967171;28;20054;-73
2021/08/18 03:41:30;;;;;;;20.08;10.85;;;;;;;24.16;73.71;100480.97;4966616;28;20035;-72
2021/08/18 03:43:58;;;;;;;18.25;10.80;;;;;;;24.16;73.68;100487.25;4967467;28;20050;-72
2021/08/18 03:46:25;;;;;;;21.85;11.07;;;;;;;24.18;73.85;100482.66;4966731;28;20787;-71
2021/08/18 03:48:54;;;;;;;17.17;11.48;;;;;;;24.22;73.89;100488.81;4965453;28;20503;-71
2021/08/18 03:51:22;;;;;;;22.77;10.57;;;;;;;24.20;73.98;100486.22;4965700;28;20434;-71
2021/08/18 03:53:50;;;;;;;17.98;10.32;;;;;;;24.20;73.94;100488.91;4966704;28;20472;-72
2021/08/18 03:56:18;;;;;;;22.05;10.82;;;;;;;24.23;73.60;100487.88;4965599;28;20050;-71
2021/08/18 03:58:45;;;;;;;18.85;10.23;;;;;;;24.28;73.60;100488.56;4967420;28;20035;-72
2021/08/18 04:01:13;;;;;;;18.08;10.75;;;;;;;24.33;73.53;100486.53;4965259;28;20047;-72
2021/08/18 04:03:41;;;;;;;18.70;10.75;;;;;;;24.38;73.55;100483.63;4968469;28;20057;-73
2021/08/18 04:06:10;;;;;;;20.73;10.30;;;;;;;24.51;73.62;100490.19;4967578;28;20121;-73
2021/08/18 04:08:37;;;;;;;20.63;9.70;;;;;;;24.60;73.65;100492.50;4960759;28;20410;-73
2021/08/18 04:11:09;;;;;;;20.52;9.90;;;;;;;24.73;73.27;100482.00;4960302;28;20444;-73
2021/08/18 04:13:37;;;;;;;16.00;8.45;;;;;;;24.82;73.33;100479.72;4961322;28;20042;-73
2021/08/18 04:16:05;;;;;;;20.05;9.43;;;;;;;24.94;73.24;100483.72;4966772;28;20118;-74
2021/08/18 04:18:32;;;;;;;15.00;7.97;;;;;;;25.04;73.05;100487.72;4967840;28;20054;-72
2021/08/18 04:21:00;;;;;;;14.55;8.80;;;;;;;25.18;72.80;100479.81;4967329;28;20039;-73
2021/08/18 04:23:29;;;;;;;15.40;8.32;;;;;;;25.31;72.59;100482.78;4971263;28;20051;-73
2021/08/18 04:25:57;;;;;;;14.40;7.68;;;;;;;25.44;72.41;100485.75;4970987;28;20042;-74
2021/08/18 04:28:24;;;;;;;15.27;7.65;;;;;;;25.53;72.42;100480.75;4969868;28;20512;-73
2021/08/18 04:30:51;;;;;;;13.60;7.60;;;;;;;25.60;72.30;100475.94;4971923;28;20398;-73
2021/08/18 04:33:19;;;;;;;16.05;8.75;;;;;;;25.75;72.12;100475.13;4969530;28;20097;-74
2021/08/18 04:35:47;;;;;;;15.80;7.63;;;;;;;25.92;71.73;100477.88;4965732;28;20035;-74
2021/08/18 04:38:14;;;;;;;14.10;8.57;;;;;;;26.03;71.41;100478.16;4969614;28;20043;-73
2021/08/18 04:40:43;;;;;;;13.90;7.95;;;;;;;26.09;70.89;100488.66;4970376;28;20118;-73
2021/08/18 04:43:13;;;;;;;14.70;8.50;;;;;;;26.12;70.72;100488.47;4970115;28;20419;-73
2021/08/18 04:45:41;;;;;;;12.52;8.30;;;;;;;26.16;70.98;100491.91;4971326;28;20145;-73
2021/08/18 04:48:09;;;;;;;14.95;8.07;;;;;;;26.31;70.69;100495.69;4968414;28;20414;-73
2021/08/18 04:50:37;;;;;;;17.83;8.43;;;;;;;26.42;70.30;100498.69;4969697;28;20035;-73
2021/08/18 04:53:08;;;;;;;14.38;8.07;;;;;;;26.56;69.59;100490.69;4970082;28;20058;-72
2021/08/18 04:55:36;;;;;;;16.00;8.32;;;;;;;26.71;69.65;100487.13;4963801;28;20211;-73
2021/08/18 04:58:05;;;;;;;14.80;7.50;;;;;;;26.98;68.87;100495.56;4969692;28;20185;-73
2021/08/18 05:00:32;;;;;;;17.02;7.40;;;;;;;27.21;68.58;100497.84;4970092;28;20047;-72
2021/08/18 05:03:00;;;;;;;13.35;7.63;;;;;;;27.47;68.55;100495.47;4969856;28;20039;-72
2021/08/18 05:05:27;;;;;;;12.40;7.05;;;;;;;27.69;67.90;100499.59;4969902;28;20483;-72
2021/08/18 05:07:56;;;;;;;14.02;7.47;;;;;;;27.95;67.26;100499.84;4970439;28;20039;-73
2021/08/18 05:10:25;;;;;;;15.20;7.68;;;;;;;28.18;66.70;100502.06;4968064;28;20165;-73
2021/08/18 05:12:53;;;;;;;14.90;7.10;;;;;;;28.43;66.14;100501.41;4969459;28;20391;-73
2021/08/18 05:15:22;;;;;;;13.35;6.85;;;;;;;28.66;65.45;100503.56;4967441;28;20066;-74
2021/08/18 05:17:50;;;;;;;11.10;7.03;;;;;;;28.89;64.46;100488.50;4969862;28;20046;-73
2021/08/18 05:20:17;;;;;;;11.85;6.55;;;;;;;29.10;63.52;100502.56;4967825;28;20051;-73
2021/08/18 05:22:45;;;;;;;13.07;6.70;;;;;;;29.32;62.22;100500.19;4970458;28;20039;-73
2021/08/18 05:25:13;;;;;;;12.27;6.30;;;;;;;29.47;60.76;100496.47;4970051;28;20035;-72
2021/08/18 05:27:40;;;;;;;9.13;5.55;;;;;;;29.69;60.32;100498.63;4968856;28;20434;-72
2021/08/18 05:30:10;;;;;;;11.15;5.32;;;;;;;29.91;60.13;100498.03;4969708;28;20099;-73
2021/08/18 05:32:40;;;;;;;11.65;5.75;;;;;;;30.15;59.47;100493.63;4963301;28;20514;-73
2021/08/18 05:35:10;;;;;;;12.10;5.78;;;;;;;30.40;58.61;100495.47;4962493;28;20043;-73
2021/08/18 05:37:38;;;;;;;11.55;6.25;;;;;;;30.58;58.33;100499.69;4963299;28;20430;-73
2021/08/18 05:40:07;;;;;;;8.82;5.35;;;;;;;30.88;57.37;100504.75;4967294;28;20057;-73
2021/08/18 05:42:35;;;;;;;13.00;5.82;;;;;;;31.15;56.82;100504.63;4962843;28;20038;-73
2021/08/18 05:45:05;;;;;;;11.27;5.57;;;;;;;31.46;56.03;100500.47;4969396;28;20043;-72
2021/08/18 05:47:33;;;;;;;9.60;5.05;;;;;;;31.65;55.48;100498.97;4968939;28;20219;-73
2021/08/18 05:50:03;;;;;;;9.95;5.03;;;;;;;31.87;54.36;100503.69;4967959;28;20035;-73
2021/08/18 05:52:32;;;;;;;11.25;5.60;;;;;;;32.00;53.88;100509.94;4962195;28;20181;-73
2021/08/18 05:55:02;;;;;;;11.50;5.88;;;;;;;32.17;53.54;100500.44;4969797;28;20376;-72
2021/08/18 05:57:30;;;;;;;11.02;5.22;;;;;;;32.39;52.49;100503.22;4969408;28;20137;-72
2021/08/18 05:59:58;;;;;;;13.13;5.75;;;;;;;32.52;52.09;100494.91;4969507;28;20120;-72
2021/08/18 06:02:26;;;;;;;11.68;6.15;;;;;;;32.63;51.70;100497.66;4968773;28;20050;-72
2021/08/18 06:04:53;;;;;;;9.88;5.18;;;;;;;32.78;51.23;100495.56;4970101;28;20035;-73
2021/08/18 06:07:22;;;;;;;11.65;5.95;;;;;;;32.90;50.23;100499.16;4968295;28;20446;-73
2021/08/18 06:09:50;;;;;;;11.25;5.30;;;;;;;33.04;49.93;100497.06;4968846;28;20129;-72
2021/08/18 06:12:17;;;;;;;14.25;5.40;;;;;;;33.08;49.36;100501.25;4968013;28;20058;-71
2021/08/18 06:14:45;;;;;;;14.27;5.90;;;;;;;33.28;48.71;100507.00;4968608;28;20042;-70
2021/08/18 06:17:12;;;;;;;11.82;5.85;;;;;;;33.41;48.50;100505.00;4968037;28;20038;-72
2021/08/18 06:19:40;;;;;;;16.95;5.25;;;;;;;33.53;47.80;100496.63;4969426;28;20053;-72
2021/08/18 06:22:07;;;;;;;9.57;5.53;;;;;;;33.59;47.54;100514.38;4967010;28;20055;-73
2021/08/18 06:24:43;;;;;;;7.75;5.00;;;;;;;33.73;47.05;100496.81;4962301;28;20054;-71
2021/08/18 06:27:13;;;;;;;11.45;5.80;;;;;;;33.87;46.64;100497.34;4964377;28;20049;-72
2021/08/18 06:29:41;;;;;;;10.88;4.72;;;;;;;34.03;46.36;100496.91;4969124;28;20069;-72
2021/08/18 06:32:10;;;;;;;10.50;5.10;;;;;;;34.14;45.91;100509.69;4964026;28;20054;-72
2021/08/18 06:34:37;;;;;;;10.27;5.30;;;;;;;34.10;46.07;100500.88;4962716;28;20054;-72
2021/08/18 06:37:06;;;;;;;11.02;5.15;;;;;;;34.26;45.55;100509.53;4967875;28;20043;-71
2021/08/18 06:39:36;;;;;;;9.90;5.53;;;;;;;34.28;45.12;100509.38;4968992;28;20522;-71
2021/08/18 06:42:05;;;;;;;10.05;5.03;;;;;;;34.26;45.17;100503.19;4967899;28;20050;-73
2021/08/18 06:44:33;;;;;;;12.90;5.32;;;;;;;34.35;44.88;100511.44;4963857;28;20058;-72
2021/08/18 06:47:01;;;;;;;12.18;5.03;;;;;;;34.36;44.56;100504.09;4959935;28;20514;-72
2021/08/18 06:49:28;;;;;;;14.38;5.25;;;;;;;34.37;44.45;100508.59;4963538;28;20454;-72
2021/08/18 06:51:56;;;;;;;12.68;5.03;;;;;;;34.33;44.48;100497.00;4962080;28;20179;-72
2021/08/18 06:54:23;;;;;;;11.57;5.15;;;;;;;34.33;44.60;100501.66;4966217;28;20073;-72
2021/08/18 06:56:54;;;;;;;12.52;5.95;;;;;;;34.37;44.13;100494.88;4969473;28;20047;-73
2021/08/18 06:59:21;;;;;;;10.13;4.90;;;;;;;34.52;44.25;100504.50;4969691;28;20062;-70
2021/08/18 07:01:50;;;;;;;13.45;5.57;;;;;;;34.67;43.98;100503.13;4966690;28;20046;-71
2021/08/18 07:04:17;;;;;;;8.20;4.75;;;;;;;34.72;43.58;100497.28;4964584;28;20050;-70
2021/08/18 07:06:45;;;;;;;12.02;5.78;;;;;;;34.85;43.65;100508.88;4965953;28;20060;-71
2021/08/18 07:09:13;;;;;;;12.93;5.03;;;;;;;35.01;42.94;100494.63;4963047;28;20043;-72
2021/08/18 07:11:40;;;;;;;14.27;5.72;;;;;;;35.06;42.75;100506.91;4967697;28;20053;-73
2021/08/18 07:14:09;;;;;;;9.82;4.88;;;;;;;35.08;42.46;100502.16;4965940;28;20062;-72
2021/08/18 07:16:38;;;;;;;11.32;4.90;;;;;;;35.15;42.30;100503.34;4962261;28;20046;-72
2021/08/18 07:19:06;;;;;;;9.95;5.60;;;;;;;35.25;41.84;100510.78;4967126;28;20054;-73
2021/08/18 07:21:52;;;;;;;12.10;5.18;;;;;;;35.11;41.77;100517.50;4968157;28;20521;-72
2021/08/18 07:24:40;;;;;;;13.43;5.40;;;;;;;34.99;42.23;100518.59;4962470;28;20057;-74
2021/08/18 07:27:29;;;;;;;14.93;5.10;;;;;;;35.19;41.83;100517.66;4961947;28;20055;-73
2021/08/18 07:30:18;;;;;;;8.95;5.05;;;;;;;35.47;41.46;100516.91;4960981;28;20141;-73
2021/08/18 07:33:06;;;;;;;8.63;4.85;;;;;;;35.71;41.12;100513.75;4959760;28;20400;-73
2021/08/18 07:35:54;;;;;;;9.68;4.78;;;;;;;35.91;40.96;100521.00;4958355;28;20561;-73
2021/08/18 07:38:41;;;;;;;11.80;5.15;;;;;;;35.86;40.55;100519.69;4963525;28;20039;-72
2021/08/18 07:41:09;;;;;;;9.57;4.63;;;;;;;35.78;40.90;100512.19;4968494;28;20038;-72
2021/08/18 07:43:36;;;;;;;10.00;4.35;;;;;;;35.65;41.47;100513.44;4966689;28;20407;-75
2021/08/18 07:46:06;;;;;;;9.10;5.25;;;;;;;35.31;42.05;100510.22;4960980;28;20541;-74
2021/08/18 07:48:33;;;;;;;8.65;4.93;;;;;;;35.42;41.64;100502.72;4962372;28;20050;-73
2021/08/18 07:51:00;;;;;;;10.20;4.67;;;;;;;35.44;41.52;100506.22;4961737;28;20062;-72
2021/08/18 07:53:28;;;;;;;9.23;5.25;;;;;;;35.40;41.37;100514.84;4964358;28;20051;-73
2021/08/18 07:55:55;;;;;;;11.27;5.60;;;;;;;35.12;40.95;100509.09;4965257;28;20076;-73
2021/08/18 07:58:23;;;;;;;11.88;5.40;;;;;;;35.06;41.17;100509.66;4969049;28;20560;-72
2021/08/18 08:00:50;;;;;;;9.95;5.45;;;;;;;35.46;40.94;100506.03;4971256;28;20051;-73
2021/08/18 08:03:20;;;;;;;10.43;5.15;;;;;;;35.78;40.09;100512.19;4968396;28;20046;-72
2021/08/18 08:05:48;;;;;;;14.43;5.30;;;;;;;35.46;40.51;100512.41;4966758;28;20053;-72
2021/08/18 08:08:15;;;;;;;10.60;5.38;;;;;;;35.38;40.54;100509.50;4965378;28;20043;-72
2021/08/18 08:10:42;;;;;;;11.50;5.15;;;;;;;35.44;41.15;100508.09;4966418;28;20038;-73
2021/08/18 08:13:10;;;;;;;8.13;4.88;;;;;;;35.74;40.04;100510.75;4964860;28;20077;-73
2021/08/18 08:15:38;;;;;;;11.45;5.35;;;;;;;35.63;40.32;100508.09;4966236;28;20046;-73
2021/08/18 08:18:05;;;;;;;9.63;5.18;;;;;;;35.71;40.48;100513.75;4965921;28;20046;-73
2021/08/18 08:20:34;;;;;;;12.05;4.82;;;;;;;35.52;41.23;100509.09;4966401;28;20055;-71
2021/08/18 08:23:01;;;;;;;9.07;4.95;;;;;;;35.29;41.51;100512.22;4965438;28;20422;-73
2021/08/18 08:25:29;;;;;;;12.57;5.07;;;;;;;35.42;41.73;100512.84;4964987;28;20050;-72
2021/08/18 08:27:57;;;;;;;9.90;5.10;;;;;;;35.58;41.20;100504.91;4967060;28;20053;-72
2021/08/18 08:30:24;;;;;;;6.65;4.22;;;;;;;35.46;41.24;100508.78;4965026;28;20055;-74
2021/08/18 08:32:52;;;;;;;8.82;4.32;;;;;;;35.61;41.29;100512.88;4969866;28;20062;-72
2021/08/18 08:35:20;;;;;;;9.13;4.80;;;;;;;35.69;40.68;100509.41;4969300;28;20050;-72
2021/08/18 08:37:48;;;;;;;10.60;4.80;;;;;;;35.97;40.16;100516.84;4970209;28;20063;-72
2021/08/18 08:40:16;;;;;;;11.02;5.03;;;;;;;36.42;39.01;100510.72;4970289;28;20043;-73
2021/08/18 08:42:44;;;;;;;10.68;5.07;;;;;;;36.59;38.20;100516.31;4968447;28;20035;-72
2021/08/18 08:45:13;;;;;;;10.00;4.65;;;;;;;36.77;37.94;100524.69;4967874;28;20043;-72
2021/08/18 08:47:40;;;;;;;9.00;4.75;;;;;;;37.06;37.48;100513.56;4966600;28;20502;-73
2021/08/18 08:50:10;;;;;;;14.93;4.90;;;;;;;37.33;36.17;100513.59;4969080;28;20043;-73
2021/08/18 08:52:38;;;;;;;8.88;5.18;;;;;;;37.37;35.26;100515.00;4968170;28;20035;-74
2021/08/18 08:55:08;;;;;;;11.15;5.03;;;;;;;37.39;35.00;100509.34;4971279;28;20049;-74
2021/08/18 08:57:46;;;;;;;8.55;5.43;;;;;;;37.51;34.56;100511.72;4968927;28;20039;-73
2021/08/18 09:00:14;;;;;;;8.20;4.93;;;;;;;37.47;34.60;100502.03;4951490;28;20522;-73
2021/08/18 09:02:42;;;;;;;7.88;4.47;;;;;;;37.37;34.81;100503.97;4971045;28;20513;-74
2021/08/18 09:05:09;;;;;;;8.95;4.90;;;;;;;37.55;34.98;100500.41;4968404;28;20406;-73
2021/08/18 09:07:37;;;;;;;8.43;4.38;;;;;;;37.47;34.37;100504.78;4968919;28;20506;-73
2021/08/18 09:10:07;;;;;;;11.30;4.97;;;;;;;37.24;34.67;100503.47;4968596;28;20050;-73
2021/08/18 09:12:37;;;;;;;9.18;4.65;;;;;;;37.46;34.89;100503.06;4967896;28;20061;-73
2021/08/18 09:15:17;;;;;;;10.18;4.75;;;;;;;37.18;34.74;100498.59;4967147;28;20885;-73
2021/08/18 09:17:46;;;;;;;12.95;5.15;;;;;;;36.99;35.41;100506.91;4970445;28;20046;-74
2021/08/18 09:20:16;;;;;;;10.57;4.65;;;;;;;37.33;34.94;100505.31;4966893;28;20121;-73
2021/08/18 09:22:48;;;;;;;8.93;4.30;;;;;;;37.73;34.30;100504.94;4970062;28;20039;-73
2021/08/18 09:25:22;;;;;;;8.05;4.60;;;;;;;37.97;33.50;100508.91;4968339;28;20038;-73
2021/08/18 09:27:55;;;;;;;10.38;4.95;;;;;;;38.02;33.37;100499.13;4970857;28;20054;-73
2021/08/18 09:30:26;;;;;;;8.90;4.70;;;;;;;38.05;33.15;100509.91;4967882;28;20047;-73
2021/08/18 09:32:54;;;;;;;10.05;5.18;;;;;;;37.89;32.92;100506.94;4970118;28;20522;-73
2021/08/18 09:35:23;;;;;;;11.13;5.20;;;;;;;37.68;32.90;100496.22;4968572;28;20053;-74
2021/08/18 09:37:59;;;;;;;9.80;4.88;;;;;;;37.77;32.32;100497.19;4969806;28;20403;-75
2021/08/18 09:40:31;;;;;;;7.60;4.65;;;;;;;37.89;32.10;100490.41;4968142;28;20056;-74
2021/08/18 09:43:09;;;;;;;8.23;4.00;;;;;;;37.89;32.37;100498.69;4969353;28;20046;-73
2021/08/18 09:45:39;;;;;;;10.30;4.50;;;;;;;37.99;32.52;100493.09;4965850;28;20039;-75
2021/08/18 09:48:08;;;;;;;11.00;4.68;;;;;;;38.12;32.27;100488.94;4961785;28;20050;-73
2021/08/18 09:50:53;;;;;;;7.85;4.90;;;;;;;38.00;32.12;100494.81;4969311;28;20046;-74
2021/08/18 09:53:25;;;;;;;7.80;5.38;;;;;;;37.98;32.21;100492.22;4950830;28;20081;-74
2021/08/18 09:56:12;;;;;;;8.70;4.72;;;;;;;38.02;32.15;100492.75;4969111;28;20047;-74
2021/08/18 09:58:41;;;;;;;8.43;4.63;;;;;;;38.00;32.15;100503.09;4963262;28;20042;-74
2021/08/18 10:01:13;;;;;;;8.52;4.78;;;;;;;37.99;31.74;100512.41;4967894;28;20053;-73
2021/08/18 10:03:42;;;;;;;8.80;4.63;;;;;;;38.03;31.61;100505.56;4972950;28;20417;-74
2021/08/18 10:06:11;;;;;;;9.30;4.55;;;;;;;38.07;31.79;100496.78;4967795;28;20051;-74
2021/08/18 10:08:40;;;;;;;9.52;4.85;;;;;;;38.07;31.86;100498.72;4968949;28;20048;-74
2021/08/18 10:11:11;;;;;;;8.50;4.70;;;;;;;37.85;31.96;100500.03;4966683;28;20051;-74
2021/08/18 10:13:39;;;;;;;12.45;5.22;;;;;;;37.65;32.25;100493.81;4966725;28;20066;-74
2021/08/18 10:16:08;;;;;;;10.20;5.28;;;;;;;37.62;32.66;100484.97;4968303;28;20046;-74
2021/08/18 10:18:38;;;;;;;10.80;5.15;;;;;;;37.39;32.68;100490.06;4967118;28;20050;-74
2021/08/18 10:21:07;;;;;;;12.23;4.65;;;;;;;37.23;32.94;100492.59;4967245;28;20042;-74
2021/08/18 10:23:43;;;;;;;9.80;5.05;;;;;;;37.16;33.38;100486.84;4967754;28;20042;-74
2021/08/18 10:26:58;;;;;;;8.65;4.53;;;;;;;37.05;33.49;100482.41;4966123;28;20035;-75
2021/08/18 10:29:36;;;;;;;9.07;4.60;;;;;;;37.22;33.55;100483.47;4919316;28;20918;-75
2021/08/18 10:32:08;;;;;;;10.68;5.22;;;;;;;37.33;33.68;100480.53;4966131;28;20038;-74
2021/08/18 10:34:47;;;;;;;11.98;5.15;;;;;;;37.42;33.99;100479.56;4962019;28;20041;-74
2021/08/18 10:37:21;;;;;;;7.85;4.43;;;;;;;37.57;34.15;100470.78;4941870;28;20054;-75
2021/08/18 10:39:53;;;;;;;12.63;4.75;;;;;;;37.57;34.54;100471.66;4966338;28;20046;-75
2021/08/18 10:42:39;;;;;;;9.40;5.53;;;;;;;37.43;34.81;100470.28;4966127;28;20039;-74
2021/08/18 10:45:37;;;;;;;12.38;5.05;;;;;;;37.21;35.40;100472.63;4964474;28;20141;-74
2021/08/18 10:48:09;;;;;;;8.82;4.72;;;;;;;37.09;35.53;100459.03;4967761;28;20070;-74
2021/08/18 10:50:45;;;;;;;9.63;4.97;;;;;;;36.99;36.04;100466.50;4967065;28;20077;-74
2021/08/18 10:53:29;;;;;;;9.95;5.05;;;;;;;37.04;36.59;100466.03;4965960;28;20050;-76
2021/08/18 10:55:57;;;;;;;15.52;5.70;;;;;;;37.07;36.28;100452.81;4967816;28;20049;-76
2021/08/18 10:58:34;;;;;;;12.45;5.20;;;;;;;37.23;35.84;100463.19;4967251;28;20054;-75
2021/08/18 11:01:01;;;;;;;9.23;5.25;;;;;;;37.00;36.13;100450.84;4963450;28;20042;-75
2021/08/18 11:03:31;;;;;;;13.55;5.80;;;;;;;36.76;36.84;100462.38;4967822;28;20068;-74
2021/08/18 11:06:00;;;;;;;10.60;5.32;;;;;;;36.93;36.27;100461.59;4967324;28;20035;-72
2021/08/18 11:08:28;;;;;;;12.80;5.50;;;;;;;37.17;35.61;100466.56;4967261;28;20057;-70
2021/08/18 11:11:20;;;;;;;12.02;5.30;;;;;;;37.15;35.54;100468.63;4969197;28;20050;-73
2021/08/18 11:13:52;;;;;;;11.85;5.68;;;;;;;37.28;34.83;100459.97;4968634;28;20566;-76
2021/08/18 11:16:23;;;;;;;10.65;5.97;;;;;;;37.41;34.80;100468.72;4965315;28;20827;-72
2021/08/18 11:18:53;;;;;;;7.32;4.80;;;;;;;37.37;34.93;100448.88;4968305;28;20129;-74
2021/08/18 11:21:23;;;;;;;7.38;5.03;;;;;;;37.33;35.18;100449.34;4967287;28;20058;-73
2021/08/18 11:23:53;;;;;;;10.40;5.38;;;;;;;37.32;35.47;100447.63;4966086;28;20438;-75
2021/08/18 11:26:24;;;;;;;11.68;5.45;;;;;;;37.66;35.12;100448.69;4972336;28;20553;-75
2021/08/18 11:29:03;;;;;;;10.32;5.68;;;;;;;38.02;34.73;100446.75;4967734;28;20046;-74